Terminal Aerodrome Forecast
Issued by NWS New Orleans/Baton Rouge, LA

Home | Current Version | Previous Version | Text Only | Print | Product List | Glossary On
Versions: 1 2 3 4 5 6 7 8 9 10 11 12 13 14
550
FTUS44 KLIX 270520
TAFBTR
TAF
KBTR 270520Z 2706/2806 19006KT P6SM VCSH FEW023 BKN030
     FM271200 VRB03KT P6SM VCSH BKN035
     FM271500 22007KT 4SM SHRA BKN040=

USA.gov is the U.S. government's official web portal to all federal, state and local government web resources and services.